This is the latest recevied weather packets stored in our database for station/object IZ2WMD-13. If no packets are shown the sender has not sent any weather packets the latest 1 day(s).
| Time | Temp. | Humidity | Pressure | Rain* | Wind** | Luminosity | Snow |
|---|---|---|---|---|---|---|---|
| 1778115157 | 11.11° C | 96% | 1010.8 hPa | - | - | - | - |
| 1778105518 | 10.56° C | 96% | 1010.7 hPa | - | - | - | - |
| 1778093467 | 10.56° C | 96% | 1009.4 hPa | - | - | - | - |
| 1778082623 | 11.11° C | 85% | 1007.5 hPa | - | - | - | - |
| 1778075394 | 19.44° C | 66% | 1006.7 hPa | - | - | - | - |
| 1778074189 | 20.56° C | 67% | 1006.9 hPa | - | - | - | - |
| 1778062140 | 15.56° C | 81% | 1008.4 hPa | - | - | - | - |
| 1778060935 | 17.22° C | 86% | 1008.3 hPa | - | - | - | - |
| 1778059730 | 15° C | 99% | 1008.4 hPa | - | - | - | - |
| 1778058525 | 12.78° C | 100% | 1008.5 hPa | - | - | - | - |
| 1778057321 | 12.78° C | 100% | 1008.4 hPa | - | - | - | - |
| 1778056115 | 13.33° C | 97% | 1008.3 hPa | - | - | - | - |
| 1778052500 | 13.33° C | 100% | 1008.3 hPa | - | - | - | - |
| 1778048886 | 13.33° C | 100% | 1008.8 hPa | - | - | - | - |
| 1778046476 | 12.78° C | 100% | 1008.5 hPa | - | - | - | - |
| 1778045271 | 12.78° C | 100% | 1009 hPa | - | - | - | - |
| 1778044066 | 12.78° C | 100% | 1009.3 hPa | - | - | - | - |
| 1778042861 | 12.78° C | 100% | 1009.3 hPa | - | - | - | - |
| 1778041656 | 12.78° C | 100% | 1009.3 hPa | - | - | - | - |
| 1778040451 | 12.78° C | 100% | 1009.5 hPa | - | - | - | - |
| 1778039247 | 12.78° C | 100% | 1009.3 hPa | - | - | - | - |
| 1778035632 | 12.78° C | 100% | 1009.9 hPa | - | - | - | - |
| 1778034427 | 12.78° C | 100% | 1010.3 hPa | - | - | - | - |
| 1778032017 | 12.78° C | 100% | 1010.2 hPa | - | - | - | - |
| 1778029607 | 12.78° C | 100% | 1010.6 hPa | - | - | - | - |
* Rain since midnight (hover to see other rain measurements)
** Current wind speed in m/s (hover to see current wind gust speed)